sensor_id;sensor_type;location;lat;lon;timestamp;P1;durP1;ratioP1;P2;durP2;ratioP2
71562;SDS011;59391;52.504;13.438;2024-01-30T00:00:17;26.83;;;13.07;;
71562;SDS011;59391;52.504;13.438;2024-01-30T00:02:43;23.42;;;12.15;;
71562;SDS011;59391;52.504;13.438;2024-01-30T00:05:10;22.58;;;12.13;;
71562;SDS011;59391;52.504;13.438;2024-01-30T00:07:36;19.27;;;10.87;;
71562;SDS011;59391;52.504;13.438;2024-01-30T00:10:02;23.13;;;12.13;;
71562;SDS011;59391;52.504;13.438;2024-01-30T00:12:27;22.65;;;11.93;;
71562;SDS011;59391;52.504;13.438;2024-01-30T00:14:53;24.15;;;12.05;;
71562;SDS011;59391;52.504;13.438;2024-01-30T00:17:19;21.55;;;12.35;;
71562;SDS011;59391;52.504;13.438;2024-01-30T00:19:45;21.52;;;12.55;;
71562;SDS011;59391;52.504;13.438;2024-01-30T00:22:11;24.23;;;12.02;;
71562;SDS011;59391;52.504;13.438;2024-01-30T00:24:37;22.87;;;12.27;;
71562;SDS011;59391;52.504;13.438;2024-01-30T00:27:02;25.00;;;12.20;;
71562;SDS011;59391;52.504;13.438;2024-01-30T00:29:28;22.50;;;11.95;;
71562;SDS011;59391;52.504;13.438;2024-01-30T00:31:56;21.98;;;11.95;;
71562;SDS011;59391;52.504;13.438;2024-01-30T00:34:21;20.70;;;11.97;;
71562;SDS011;59391;52.504;13.438;2024-01-30T00:36:47;22.35;;;12.05;;
71562;SDS011;59391;52.504;13.438;2024-01-30T00:39:13;19.43;;;11.07;;
71562;SDS011;59391;52.504;13.438;2024-01-30T00:41:40;18.77;;;11.15;;
71562;SDS011;59391;52.504;13.438;2024-01-30T00:44:06;21.13;;;11.70;;
71562;SDS011;59391;52.504;13.438;2024-01-30T00:46:32;21.50;;;11.93;;
71562;SDS011;59391;52.504;13.438;2024-01-30T00:48:57;20.93;;;11.70;;
71562;SDS011;59391;52.504;13.438;2024-01-30T00:51:23;18.52;;;10.77;;
71562;SDS011;59391;52.504;13.438;2024-01-30T00:53:49;20.57;;;11.53;;
71562;SDS011;59391;52.504;13.438;2024-01-30T00:56:14;21.58;;;11.45;;
71562;SDS011;59391;52.504;13.438;2024-01-30T00:58:43;21.43;;;11.83;;
71562;SDS011;59391;52.504;13.438;2024-01-30T01:01:08;20.70;;;10.98;;
71562;SDS011;59391;52.504;13.438;2024-01-30T01:03:34;20.03;;;11.50;;
71562;SDS011;59391;52.504;13.438;2024-01-30T01:06:00;19.65;;;11.07;;
71562;SDS011;59391;52.504;13.438;2024-01-30T01:08:25;21.57;;;12.00;;
71562;SDS011;59391;52.504;13.438;2024-01-30T01:10:51;22.67;;;10.75;;
71562;SDS011;59391;52.504;13.438;2024-01-30T01:13:17;21.90;;;11.13;;
71562;SDS011;59391;52.504;13.438;2024-01-30T01:15:43;21.17;;;10.70;;
71562;SDS011;59391;52.504;13.438;2024-01-30T01:18:08;20.57;;;9.97;;
71562;SDS011;59391;52.504;13.438;2024-01-30T01:20:34;20.27;;;10.57;;
71562;SDS011;59391;52.504;13.438;2024-01-30T01:22:59;20.65;;;11.07;;
71562;SDS011;59391;52.504;13.438;2024-01-30T01:25:25;18.87;;;10.00;;
71562;SDS011;59391;52.504;13.438;2024-01-30T01:27:51;20.08;;;10.18;;
71562;SDS011;59391;52.504;13.438;2024-01-30T01:30:16;17.25;;;9.90;;
71562;SDS011;59391;52.504;13.438;2024-01-30T01:32:48;17.35;;;9.82;;
71562;SDS011;59391;52.504;13.438;2024-01-30T01:35:21;19.33;;;10.13;;
71562;SDS011;59391;52.504;13.438;2024-01-30T01:37:49;19.27;;;10.23;;
71562;SDS011;59391;52.504;13.438;2024-01-30T01:40:24;17.65;;;10.25;;
71562;SDS011;59391;52.504;13.438;2024-01-30T01:42:51;20.10;;;10.13;;
71562;SDS011;59391;52.504;13.438;2024-01-30T01:45:18;17.60;;;9.60;;
71562;SDS011;59391;52.504;13.438;2024-01-30T01:47:53;18.88;;;10.02;;
71562;SDS011;59391;52.504;13.438;2024-01-30T01:50:19;20.13;;;10.77;;
71562;SDS011;59391;52.504;13.438;2024-01-30T01:52:50;19.92;;;10.07;;
71562;SDS011;59391;52.504;13.438;2024-01-30T01:55:17;19.42;;;10.98;;
71562;SDS011;59391;52.504;13.438;2024-01-30T01:57:52;21.73;;;10.38;;
71562;SDS011;59391;52.504;13.438;2024-01-30T02:00:18;21.00;;;10.30;;
71562;SDS011;59391;52.504;13.438;2024-01-30T02:02:45;19.90;;;10.70;;
71562;SDS011;59391;52.504;13.438;2024-01-30T02:05:12;21.10;;;10.40;;
71562;SDS011;59391;52.504;13.438;2024-01-30T02:07:38;19.95;;;10.50;;
71562;SDS011;59391;52.504;13.438;2024-01-30T02:10:04;18.20;;;10.40;;
71562;SDS011;59391;52.504;13.438;2024-01-30T02:12:30;20.88;;;11.68;;
71562;SDS011;59391;52.504;13.438;2024-01-30T02:14:56;20.30;;;11.00;;
71562;SDS011;59391;52.504;13.438;2024-01-30T02:17:21;19.20;;;11.27;;
71562;SDS011;59391;52.504;13.438;2024-01-30T02:19:48;20.02;;;10.80;;
71562;SDS011;59391;52.504;13.438;2024-01-30T02:22:14;19.95;;;11.32;;
71562;SDS011;59391;52.504;13.438;2024-01-30T02:24:40;17.48;;;10.32;;
71562;SDS011;59391;52.504;13.438;2024-01-30T02:27:05;19.10;;;10.73;;
71562;SDS011;59391;52.504;13.438;2024-01-30T02:29:31;19.40;;;11.23;;
71562;SDS011;59391;52.504;13.438;2024-01-30T02:31:57;21.05;;;11.05;;
71562;SDS011;59391;52.504;13.438;2024-01-30T02:34:23;22.30;;;13.17;;
71562;SDS011;59391;52.504;13.438;2024-01-30T02:36:49;22.88;;;12.45;;
71562;SDS011;59391;52.504;13.438;2024-01-30T02:39:14;21.23;;;11.70;;
71562;SDS011;59391;52.504;13.438;2024-01-30T02:41:40;22.27;;;12.25;;
71562;SDS011;59391;52.504;13.438;2024-01-30T02:44:06;21.67;;;12.03;;
71562;SDS011;59391;52.504;13.438;2024-01-30T02:46:31;21.23;;;10.88;;
71562;SDS011;59391;52.504;13.438;2024-01-30T02:48:57;18.90;;;11.43;;
71562;SDS011;59391;52.504;13.438;2024-01-30T02:51:22;23.03;;;11.37;;
71562;SDS011;59391;52.504;13.438;2024-01-30T02:53:48;20.42;;;10.52;;
71562;SDS011;59391;52.504;13.438;2024-01-30T02:56:14;21.90;;;11.17;;
71562;SDS011;59391;52.504;13.438;2024-01-30T02:58:40;18.67;;;11.07;;
71562;SDS011;59391;52.504;13.438;2024-01-30T03:01:06;19.25;;;11.05;;
71562;SDS011;59391;52.504;13.438;2024-01-30T03:03:32;18.53;;;10.53;;
71562;SDS011;59391;52.504;13.438;2024-01-30T03:06:00;19.80;;;11.60;;
71562;SDS011;59391;52.504;13.438;2024-01-30T03:08:25;19.65;;;10.75;;
71562;SDS011;59391;52.504;13.438;2024-01-30T03:10:51;18.47;;;10.33;;
71562;SDS011;59391;52.504;13.438;2024-01-30T03:13:16;20.53;;;11.13;;
71562;SDS011;59391;52.504;13.438;2024-01-30T03:15:42;19.77;;;10.82;;
71562;SDS011;59391;52.504;13.438;2024-01-30T03:18:08;21.33;;;10.93;;
71562;SDS011;59391;52.504;13.438;2024-01-30T03:20:33;20.30;;;11.27;;
71562;SDS011;59391;52.504;13.438;2024-01-30T03:22:59;18.67;;;10.00;;
71562;SDS011;59391;52.504;13.438;2024-01-30T03:25:25;19.42;;;10.50;;
71562;SDS011;59391;52.504;13.438;2024-01-30T03:27:51;18.33;;;10.43;;
71562;SDS011;59391;52.504;13.438;2024-01-30T03:30:17;18.35;;;10.73;;
71562;SDS011;59391;52.504;13.438;2024-01-30T03:32:43;18.93;;;10.70;;
71562;SDS011;59391;52.504;13.438;2024-01-30T03:35:09;19.73;;;10.52;;
71562;SDS011;59391;52.504;13.438;2024-01-30T03:37:35;16.92;;;10.93;;
71562;SDS011;59391;52.504;13.438;2024-01-30T03:40:01;20.20;;;10.82;;
71562;SDS011;59391;52.504;13.438;2024-01-30T03:42:28;19.13;;;11.50;;
71562;SDS011;59391;52.504;13.438;2024-01-30T03:44:53;18.77;;;10.23;;
71562;SDS011;59391;52.504;13.438;2024-01-30T03:47:20;18.15;;;10.38;;
71562;SDS011;59391;52.504;13.438;2024-01-30T03:49:46;20.40;;;11.13;;
71562;SDS011;59391;52.504;13.438;2024-01-30T03:52:12;19.98;;;11.43;;
71562;SDS011;59391;52.504;13.438;2024-01-30T03:54:38;20.13;;;10.87;;
71562;SDS011;59391;52.504;13.438;2024-01-30T03:57:03;22.45;;;11.85;;
71562;SDS011;59391;52.504;13.438;2024-01-30T03:59:30;21.95;;;11.07;;
71562;SDS011;59391;52.504;13.438;2024-01-30T04:01:56;22.50;;;10.97;;
71562;SDS011;59391;52.504;13.438;2024-01-30T04:04:21;21.33;;;12.07;;
71562;SDS011;59391;52.504;13.438;2024-01-30T04:06:48;19.53;;;10.83;;
71562;SDS011;59391;52.504;13.438;2024-01-30T04:09:13;18.60;;;10.50;;
71562;SDS011;59391;52.504;13.438;2024-01-30T04:11:39;16.27;;;10.43;;
71562;SDS011;59391;52.504;13.438;2024-01-30T04:14:06;18.47;;;10.33;;
71562;SDS011;59391;52.504;13.438;2024-01-30T04:16:32;18.65;;;10.98;;
71562;SDS011;59391;52.504;13.438;2024-01-30T04:18:58;18.08;;;11.05;;
71562;SDS011;59391;52.504;13.438;2024-01-30T04:21:23;20.13;;;10.20;;
71562;SDS011;59391;52.504;13.438;2024-01-30T04:23:50;18.33;;;10.43;;
71562;SDS011;59391;52.504;13.438;2024-01-30T04:26:16;18.52;;;10.20;;
71562;SDS011;59391;52.504;13.438;2024-01-30T04:28:42;19.70;;;10.75;;
71562;SDS011;59391;52.504;13.438;2024-01-30T04:31:09;17.53;;;10.37;;
71562;SDS011;59391;52.504;13.438;2024-01-30T04:33:35;19.73;;;10.98;;
71562;SDS011;59391;52.504;13.438;2024-01-30T04:36:01;19.70;;;11.32;;
71562;SDS011;59391;52.504;13.438;2024-01-30T04:38:28;19.77;;;11.57;;
71562;SDS011;59391;52.504;13.438;2024-01-30T04:40:53;22.10;;;11.60;;
71562;SDS011;59391;52.504;13.438;2024-01-30T04:43:19;17.90;;;11.20;;
71562;SDS011;59391;52.504;13.438;2024-01-30T04:45:45;21.87;;;10.63;;
71562;SDS011;59391;52.504;13.438;2024-01-30T04:48:11;18.50;;;10.75;;
71562;SDS011;59391;52.504;13.438;2024-01-30T04:50:36;20.50;;;11.27;;
71562;SDS011;59391;52.504;13.438;2024-01-30T04:53:05;21.58;;;11.57;;
71562;SDS011;59391;52.504;13.438;2024-01-30T04:55:30;18.57;;;11.27;;
71562;SDS011;59391;52.504;13.438;2024-01-30T04:57:56;19.70;;;10.88;;
71562;SDS011;59391;52.504;13.438;2024-01-30T05:00:21;20.50;;;10.83;;
71562;SDS011;59391;52.504;13.438;2024-01-30T05:02:47;17.47;;;10.20;;
71562;SDS011;59391;52.504;13.438;2024-01-30T05:05:13;20.17;;;10.60;;
71562;SDS011;59391;52.504;13.438;2024-01-30T05:07:38;20.17;;;10.93;;
71562;SDS011;59391;52.504;13.438;2024-01-30T05:10:06;21.80;;;11.93;;
71562;SDS011;59391;52.504;13.438;2024-01-30T05:12:33;20.33;;;11.98;;
71562;SDS011;59391;52.504;13.438;2024-01-30T05:14:59;22.77;;;12.90;;
71562;SDS011;59391;52.504;13.438;2024-01-30T05:17:24;21.80;;;12.10;;
71562;SDS011;59391;52.504;13.438;2024-01-30T05:19:50;22.37;;;13.07;;
71562;SDS011;59391;52.504;13.438;2024-01-30T05:22:15;25.10;;;12.93;;
71562;SDS011;59391;52.504;13.438;2024-01-30T05:24:43;24.02;;;12.18;;
71562;SDS011;59391;52.504;13.438;2024-01-30T05:27:09;20.77;;;12.73;;
71562;SDS011;59391;52.504;13.438;2024-01-30T05:29:35;28.17;;;13.50;;
71562;SDS011;59391;52.504;13.438;2024-01-30T05:32:01;23.50;;;12.10;;
71562;SDS011;59391;52.504;13.438;2024-01-30T05:34:28;22.50;;;11.65;;
71562;SDS011;59391;52.504;13.438;2024-01-30T05:36:54;19.40;;;12.10;;
71562;SDS011;59391;52.504;13.438;2024-01-30T05:39:19;30.27;;;13.80;;
71562;SDS011;59391;52.504;13.438;2024-01-30T05:41:45;21.93;;;12.40;;
71562;SDS011;59391;52.504;13.438;2024-01-30T05:44:11;31.48;;;14.70;;
71562;SDS011;59391;52.504;13.438;2024-01-30T05:46:36;25.53;;;12.53;;
71562;SDS011;59391;52.504;13.438;2024-01-30T05:49:02;25.60;;;13.37;;
71562;SDS011;59391;52.504;13.438;2024-01-30T05:51:27;23.75;;;12.60;;
71562;SDS011;59391;52.504;13.438;2024-01-30T05:53:53;22.83;;;13.10;;
71562;SDS011;59391;52.504;13.438;2024-01-30T05:56:19;24.25;;;13.70;;
71562;SDS011;59391;52.504;13.438;2024-01-30T05:58:45;23.05;;;12.20;;
71562;SDS011;59391;52.504;13.438;2024-01-30T06:01:10;22.60;;;12.43;;
71562;SDS011;59391;52.504;13.438;2024-01-30T06:03:36;22.63;;;11.87;;
71562;SDS011;59391;52.504;13.438;2024-01-30T06:06:03;24.27;;;14.38;;
71562;SDS011;59391;52.504;13.438;2024-01-30T06:08:31;25.98;;;14.00;;
71562;SDS011;59391;52.504;13.438;2024-01-30T06:10:56;25.63;;;14.23;;
71562;SDS011;59391;52.504;13.438;2024-01-30T06:13:22;23.30;;;12.70;;
71562;SDS011;59391;52.504;13.438;2024-01-30T06:15:48;21.27;;;13.15;;
71562;SDS011;59391;52.504;13.438;2024-01-30T06:18:14;22.37;;;13.30;;
71562;SDS011;59391;52.504;13.438;2024-01-30T06:20:39;21.52;;;12.27;;
71562;SDS011;59391;52.504;13.438;2024-01-30T06:23:05;21.40;;;13.70;;
71562;SDS011;59391;52.504;13.438;2024-01-30T06:25:32;22.52;;;13.52;;
71562;SDS011;59391;52.504;13.438;2024-01-30T06:27:58;25.60;;;13.65;;
71562;SDS011;59391;52.504;13.438;2024-01-30T06:30:23;28.00;;;15.23;;
71562;SDS011;59391;52.504;13.438;2024-01-30T06:32:49;27.77;;;16.17;;
71562;SDS011;59391;52.504;13.438;2024-01-30T06:35:15;29.05;;;15.90;;
71562;SDS011;59391;52.504;13.438;2024-01-30T06:37:42;28.70;;;15.53;;
71562;SDS011;59391;52.504;13.438;2024-01-30T06:40:14;30.25;;;17.13;;
71562;SDS011;59391;52.504;13.438;2024-01-30T06:42:43;27.58;;;15.20;;
71562;SDS011;59391;52.504;13.438;2024-01-30T06:45:09;34.33;;;14.90;;
71562;SDS011;59391;52.504;13.438;2024-01-30T06:47:35;26.23;;;14.43;;
71562;SDS011;59391;52.504;13.438;2024-01-30T06:50:00;26.80;;;13.67;;
71562;SDS011;59391;52.504;13.438;2024-01-30T06:52:27;23.45;;;13.65;;
71562;SDS011;59391;52.504;13.438;2024-01-30T06:54:52;23.30;;;13.85;;
71562;SDS011;59391;52.504;13.438;2024-01-30T06:57:18;26.27;;;13.70;;
71562;SDS011;59391;52.504;13.438;2024-01-30T06:59:44;26.13;;;14.77;;
71562;SDS011;59391;52.504;13.438;2024-01-30T07:02:10;24.90;;;13.65;;
71562;SDS011;59391;52.504;13.438;2024-01-30T07:04:36;22.02;;;13.10;;
71562;SDS011;59391;52.504;13.438;2024-01-30T07:07:06;25.10;;;14.00;;
71562;SDS011;59391;52.504;13.438;2024-01-30T07:09:36;24.30;;;13.25;;
71562;SDS011;59391;52.504;13.438;2024-01-30T07:12:05;25.20;;;12.52;;
71562;SDS011;59391;52.504;13.438;2024-01-30T07:14:31;24.55;;;12.30;;
71562;SDS011;59391;52.504;13.438;2024-01-30T07:17:00;23.63;;;11.90;;
71562;SDS011;59391;52.504;13.438;2024-01-30T07:19:26;20.98;;;11.23;;
71562;SDS011;59391;52.504;13.438;2024-01-30T07:21:52;41.38;;;18.35;;
71562;SDS011;59391;52.504;13.438;2024-01-30T07:24:17;27.13;;;13.57;;
71562;SDS011;59391;52.504;13.438;2024-01-30T07:26:43;29.73;;;15.37;;
71562;SDS011;59391;52.504;13.438;2024-01-30T07:29:09;28.05;;;16.13;;
71562;SDS011;59391;52.504;13.438;2024-01-30T07:31:34;38.83;;;18.30;;
71562;SDS011;59391;52.504;13.438;2024-01-30T07:34:00;39.20;;;18.88;;
71562;SDS011;59391;52.504;13.438;2024-01-30T07:36:27;34.42;;;18.15;;
71562;SDS011;59391;52.504;13.438;2024-01-30T07:38:52;55.50;;;27.77;;
71562;SDS011;59391;52.504;13.438;2024-01-30T07:41:19;28.60;;;16.27;;
71562;SDS011;59391;52.504;13.438;2024-01-30T07:43:45;34.23;;;15.93;;
71562;SDS011;59391;52.504;13.438;2024-01-30T07:46:11;33.13;;;16.67;;
71562;SDS011;59391;52.504;13.438;2024-01-30T07:48:36;42.93;;;21.10;;
71562;SDS011;59391;52.504;13.438;2024-01-30T07:51:02;41.73;;;21.13;;
71562;SDS011;59391;52.504;13.438;2024-01-30T07:53:28;34.05;;;18.65;;
71562;SDS011;59391;52.504;13.438;2024-01-30T07:55:57;34.67;;;19.30;;
71562;SDS011;59391;52.504;13.438;2024-01-30T07:58:23;34.37;;;18.90;;
71562;SDS011;59391;52.504;13.438;2024-01-30T08:00:48;41.33;;;20.40;;
71562;SDS011;59391;52.504;13.438;2024-01-30T08:03:16;43.97;;;21.48;;
71562;SDS011;59391;52.504;13.438;2024-01-30T08:05:43;62.53;;;26.80;;
71562;SDS011;59391;52.504;13.438;2024-01-30T08:08:09;43.60;;;20.63;;
71562;SDS011;59391;52.504;13.438;2024-01-30T08:10:34;53.63;;;25.90;;
71562;SDS011;59391;52.504;13.438;2024-01-30T08:13:01;46.67;;;21.87;;
71562;SDS011;59391;52.504;13.438;2024-01-30T08:15:26;41.78;;;21.98;;
71562;SDS011;59391;52.504;13.438;2024-01-30T08:17:52;34.22;;;18.85;;
71562;SDS011;59391;52.504;13.438;2024-01-30T08:20:22;28.57;;;16.30;;
71562;SDS011;59391;52.504;13.438;2024-01-30T08:22:51;43.00;;;20.92;;
71562;SDS011;59391;52.504;13.438;2024-01-30T08:25:17;33.45;;;17.10;;
71562;SDS011;59391;52.504;13.438;2024-01-30T08:27:43;29.60;;;16.20;;
71562;SDS011;59391;52.504;13.438;2024-01-30T08:30:10;32.33;;;16.07;;
71562;SDS011;59391;52.504;13.438;2024-01-30T08:32:36;32.10;;;16.75;;
71562;SDS011;59391;52.504;13.438;2024-01-30T08:35:01;26.30;;;15.27;;
71562;SDS011;59391;52.504;13.438;2024-01-30T08:37:30;28.33;;;14.50;;
71562;SDS011;59391;52.504;13.438;2024-01-30T08:39:58;30.92;;;15.77;;
71562;SDS011;59391;52.504;13.438;2024-01-30T08:42:24;32.15;;;15.90;;
71562;SDS011;59391;52.504;13.438;2024-01-30T08:44:50;27.73;;;14.97;;
71562;SDS011;59391;52.504;13.438;2024-01-30T08:47:18;25.95;;;14.82;;
71562;SDS011;59391;52.504;13.438;2024-01-30T08:49:43;29.80;;;14.73;;
71562;SDS011;59391;52.504;13.438;2024-01-30T08:52:10;36.53;;;18.03;;
71562;SDS011;59391;52.504;13.438;2024-01-30T08:54:36;34.65;;;17.70;;
71562;SDS011;59391;52.504;13.438;2024-01-30T08:57:01;51.65;;;21.33;;
71562;SDS011;59391;52.504;13.438;2024-01-30T08:59:27;31.17;;;16.98;;
71562;SDS011;59391;52.504;13.438;2024-01-30T09:01:55;32.45;;;16.83;;
71562;SDS011;59391;52.504;13.438;2024-01-30T09:04:22;35.10;;;17.30;;
71562;SDS011;59391;52.504;13.438;2024-01-30T09:06:48;26.07;;;14.40;;
71562;SDS011;59391;52.504;13.438;2024-01-30T09:09:14;26.67;;;14.00;;
71562;SDS011;59391;52.504;13.438;2024-01-30T09:11:40;39.55;;;16.38;;
71562;SDS011;59391;52.504;13.438;2024-01-30T09:14:05;27.87;;;13.87;;
71562;SDS011;59391;52.504;13.438;2024-01-30T09:16:31;24.83;;;13.73;;
71562;SDS011;59391;52.504;13.438;2024-01-30T09:18:57;28.17;;;14.57;;
71562;SDS011;59391;52.504;13.438;2024-01-30T09:21:25;24.67;;;12.93;;
71562;SDS011;59391;52.504;13.438;2024-01-30T09:23:54;26.25;;;13.57;;
71562;SDS011;59391;52.504;13.438;2024-01-30T09:26:26;23.55;;;12.60;;
71562;SDS011;59391;52.504;13.438;2024-01-30T09:28:51;26.63;;;12.43;;
71562;SDS011;59391;52.504;13.438;2024-01-30T09:31:17;23.00;;;11.70;;
71562;SDS011;59391;52.504;13.438;2024-01-30T09:33:42;23.87;;;12.97;;
71562;SDS011;59391;52.504;13.438;2024-01-30T09:36:09;23.27;;;12.88;;
71562;SDS011;59391;52.504;13.438;2024-01-30T09:38:34;25.10;;;12.77;;
71562;SDS011;59391;52.504;13.438;2024-01-30T09:41:01;25.05;;;12.73;;
71562;SDS011;59391;52.504;13.438;2024-01-30T09:43:34;28.10;;;13.18;;
71562;SDS011;59391;52.504;13.438;2024-01-30T09:46:01;22.07;;;12.60;;
71562;SDS011;59391;52.504;13.438;2024-01-30T09:48:29;25.77;;;12.55;;
71562;SDS011;59391;52.504;13.438;2024-01-30T09:50:57;25.45;;;12.63;;
71562;SDS011;59391;52.504;13.438;2024-01-30T09:53:23;22.52;;;11.35;;
71562;SDS011;59391;52.504;13.438;2024-01-30T09:55:49;21.63;;;12.20;;
71562;SDS011;59391;52.504;13.438;2024-01-30T09:58:16;22.25;;;11.65;;
71562;SDS011;59391;52.504;13.438;2024-01-30T10:00:41;22.25;;;12.07;;
71562;SDS011;59391;52.504;13.438;2024-01-30T10:03:08;22.70;;;13.00;;
71562;SDS011;59391;52.504;13.438;2024-01-30T10:05:35;19.42;;;11.63;;
71562;SDS011;59391;52.504;13.438;2024-01-30T10:08:05;22.10;;;11.25;;
71562;SDS011;59391;52.504;13.438;2024-01-30T10:10:34;25.25;;;11.52;;
71562;SDS011;59391;52.504;13.438;2024-01-30T10:13:12;17.92;;;10.25;;
71562;SDS011;59391;52.504;13.438;2024-01-30T10:15:41;25.08;;;11.80;;
71562;SDS011;59391;52.504;13.438;2024-01-30T10:18:10;20.80;;;10.83;;
71562;SDS011;59391;52.504;13.438;2024-01-30T10:20:39;18.60;;;9.93;;
71562;SDS011;59391;52.504;13.438;2024-01-30T10:23:10;32.28;;;13.45;;
71562;SDS011;59391;52.504;13.438;2024-01-30T10:25:43;18.98;;;10.43;;
71562;SDS011;59391;52.504;13.438;2024-01-30T10:28:11;18.13;;;9.77;;
71562;SDS011;59391;52.504;13.438;2024-01-30T10:30:46;23.63;;;11.18;;
71562;SDS011;59391;52.504;13.438;2024-01-30T10:33:11;20.75;;;10.23;;
71562;SDS011;59391;52.504;13.438;2024-01-30T10:35:39;19.38;;;10.18;;
71562;SDS011;59391;52.504;13.438;2024-01-30T10:38:05;16.43;;;8.73;;
71562;SDS011;59391;52.504;13.438;2024-01-30T10:40:42;16.42;;;9.70;;
71562;SDS011;59391;52.504;13.438;2024-01-30T10:43:22;18.35;;;11.23;;
71562;SDS011;59391;52.504;13.438;2024-01-30T10:46:22;17.63;;;10.23;;
71562;SDS011;59391;52.504;13.438;2024-01-30T10:48:59;18.13;;;9.47;;
71562;SDS011;59391;52.504;13.438;2024-01-30T10:51:26;18.85;;;10.32;;
71562;SDS011;59391;52.504;13.438;2024-01-30T10:53:59;17.80;;;10.27;;
71562;SDS011;59391;52.504;13.438;2024-01-30T10:56:28;17.40;;;10.18;;
71562;SDS011;59391;52.504;13.438;2024-01-30T10:59:00;17.08;;;9.95;;
71562;SDS011;59391;52.504;13.438;2024-01-30T11:01:26;18.93;;;10.10;;
71562;SDS011;59391;52.504;13.438;2024-01-30T11:04:16;31.20;;;16.42;;
71562;SDS011;59391;52.504;13.438;2024-01-30T11:06:42;27.38;;;14.93;;
71562;SDS011;59391;52.504;13.438;2024-01-30T11:09:10;25.33;;;13.37;;
71562;SDS011;59391;52.504;13.438;2024-01-30T11:14:26;38.10;;;20.20;;
71562;SDS011;59391;52.504;13.438;2024-01-30T11:16:58;25.05;;;13.40;;
71562;SDS011;59391;52.504;13.438;2024-01-30T11:19:30;25.20;;;12.90;;
71562;SDS011;59391;52.504;13.438;2024-01-30T11:22:06;19.03;;;9.47;;
71562;SDS011;59391;52.504;13.438;2024-01-30T11:24:39;23.08;;;10.45;;
71562;SDS011;59391;52.504;13.438;2024-01-30T11:27:11;37.53;;;16.42;;
71562;SDS011;59391;52.504;13.438;2024-01-30T11:29:40;22.05;;;10.93;;
71562;SDS011;59391;52.504;13.438;2024-01-30T11:32:05;24.43;;;11.50;;
71562;SDS011;59391;52.504;13.438;2024-01-30T11:34:32;26.98;;;12.95;;
71562;SDS011;59391;52.504;13.438;2024-01-30T11:37:02;25.20;;;11.82;;
71562;SDS011;59391;52.504;13.438;2024-01-30T11:39:35;28.17;;;13.13;;
71562;SDS011;59391;52.504;13.438;2024-01-30T11:42:06;25.60;;;12.40;;
71562;SDS011;59391;52.504;13.438;2024-01-30T11:44:36;22.50;;;10.90;;
71562;SDS011;59391;52.504;13.438;2024-01-30T11:47:02;15.68;;;8.63;;
71562;SDS011;59391;52.504;13.438;2024-01-30T11:49:28;27.65;;;12.73;;
71562;SDS011;59391;52.504;13.438;2024-01-30T11:51:54;20.20;;;10.30;;
71562;SDS011;59391;52.504;13.438;2024-01-30T11:54:23;23.15;;;10.50;;
71562;SDS011;59391;52.504;13.438;2024-01-30T11:56:51;25.37;;;12.67;;
71562;SDS011;59391;52.504;13.438;2024-01-30T11:59:17;25.98;;;12.32;;
71562;SDS011;59391;52.504;13.438;2024-01-30T12:01:45;40.33;;;17.98;;
71562;SDS011;59391;52.504;13.438;2024-01-30T12:04:11;28.08;;;14.35;;
71562;SDS011;59391;52.504;13.438;2024-01-30T12:06:40;28.07;;;14.53;;
71562;SDS011;59391;52.504;13.438;2024-01-30T12:09:09;26.15;;;14.68;;
71562;SDS011;59391;52.504;13.438;2024-01-30T12:11:46;21.45;;;12.75;;
71562;SDS011;59391;52.504;13.438;2024-01-30T12:14:16;25.85;;;14.98;;
71562;SDS011;59391;52.504;13.438;2024-01-30T12:16:47;31.17;;;17.80;;
71562;SDS011;59391;52.504;13.438;2024-01-30T12:19:49;22.90;;;12.70;;
71562;SDS011;59391;52.504;13.438;2024-01-30T12:22:11;23.00;;;11.90;;
71562;SDS011;59391;52.504;13.438;2024-01-30T12:24:37;17.13;;;9.43;;
71562;SDS011;59391;52.504;13.438;2024-01-30T12:27:02;20.07;;;10.53;;
71562;SDS011;59391;52.504;13.438;2024-01-30T12:29:31;28.15;;;11.38;;
71562;SDS011;59391;52.504;13.438;2024-01-30T12:31:58;28.33;;;13.13;;
71562;SDS011;59391;52.504;13.438;2024-01-30T12:34:28;21.23;;;11.80;;
71562;SDS011;59391;52.504;13.438;2024-01-30T12:36:53;25.33;;;13.40;;
71562;SDS011;59391;52.504;13.438;2024-01-30T12:39:19;29.63;;;14.40;;
71562;SDS011;59391;52.504;13.438;2024-01-30T12:41:45;28.15;;;12.27;;
71562;SDS011;59391;52.504;13.438;2024-01-30T12:44:10;20.00;;;10.83;;
71562;SDS011;59391;52.504;13.438;2024-01-30T12:46:42;21.33;;;11.88;;
71562;SDS011;59391;52.504;13.438;2024-01-30T12:49:11;16.50;;;9.60;;
71562;SDS011;59391;52.504;13.438;2024-01-30T12:51:40;25.65;;;11.98;;
71562;SDS011;59391;52.504;13.438;2024-01-30T12:56:39;26.75;;;14.25;;
71562;SDS011;59391;52.504;13.438;2024-01-30T12:59:05;27.20;;;15.10;;
71562;SDS011;59391;52.504;13.438;2024-01-30T13:01:30;25.50;;;14.17;;
71562;SDS011;59391;52.504;13.438;2024-01-30T13:03:56;20.52;;;13.07;;
71562;SDS011;59391;52.504;13.438;2024-01-30T13:06:23;19.30;;;10.95;;
71562;SDS011;59391;52.504;13.438;2024-01-30T13:08:49;20.93;;;12.53;;
71562;SDS011;59391;52.504;13.438;2024-01-30T13:11:14;19.13;;;10.30;;
71562;SDS011;59391;52.504;13.438;2024-01-30T13:13:40;22.67;;;11.32;;
71562;SDS011;59391;52.504;13.438;2024-01-30T13:16:06;24.20;;;12.57;;
71562;SDS011;59391;52.504;13.438;2024-01-30T13:18:31;19.92;;;11.95;;
71562;SDS011;59391;52.504;13.438;2024-01-30T13:20:57;18.80;;;10.73;;
71562;SDS011;59391;52.504;13.438;2024-01-30T13:23:23;17.88;;;10.32;;
71562;SDS011;59391;52.504;13.438;2024-01-30T13:25:48;17.93;;;10.00;;
71562;SDS011;59391;52.504;13.438;2024-01-30T13:28:14;16.45;;;10.40;;
71562;SDS011;59391;52.504;13.438;2024-01-30T13:30:40;18.43;;;11.40;;
71562;SDS011;59391;52.504;13.438;2024-01-30T13:33:05;22.00;;;11.33;;
71562;SDS011;59391;52.504;13.438;2024-01-30T13:35:31;21.65;;;10.50;;
71562;SDS011;59391;52.504;13.438;2024-01-30T13:37:57;22.03;;;11.47;;
71562;SDS011;59391;52.504;13.438;2024-01-30T13:40:22;19.52;;;9.75;;
71562;SDS011;59391;52.504;13.438;2024-01-30T13:42:48;17.77;;;10.50;;
71562;SDS011;59391;52.504;13.438;2024-01-30T13:45:13;18.02;;;9.75;;
71562;SDS011;59391;52.504;13.438;2024-01-30T13:47:40;36.90;;;17.03;;
71562;SDS011;59391;52.504;13.438;2024-01-30T13:50:05;32.13;;;14.02;;
71562;SDS011;59391;52.504;13.438;2024-01-30T13:52:32;32.08;;;16.65;;
71562;SDS011;59391;52.504;13.438;2024-01-30T13:54:58;38.17;;;17.27;;
71562;SDS011;59391;52.504;13.438;2024-01-30T13:57:24;34.00;;;15.02;;
71562;SDS011;59391;52.504;13.438;2024-01-30T13:59:49;20.27;;;10.40;;
71562;SDS011;59391;52.504;13.438;2024-01-30T14:02:15;23.75;;;12.15;;
71562;SDS011;59391;52.504;13.438;2024-01-30T14:04:41;24.83;;;11.25;;
71562;SDS011;59391;52.504;13.438;2024-01-30T14:07:06;22.30;;;11.17;;
71562;SDS011;59391;52.504;13.438;2024-01-30T14:09:32;22.50;;;10.80;;
71562;SDS011;59391;52.504;13.438;2024-01-30T14:11:59;39.78;;;16.10;;